Galt, Canada
Current Conditions -  °F | °C
As of 4:00 AM on Wednesday 22 Oct 2014 (Local Time) from CYKF Reporting Station
Overcast Overcast  
Wind Chill:   Ceiling: 2100
Heat Index:   Visibility: 9mi
Dew Point:   Wind: 9mph
Humidity: 81%   Direction: 10°N
Pressure: 30.18"   Gusts: NA
Location:  43.35°N, 80.3°W
Report Text: CYKF 220800Z AUTO 01008KT 9SM OVC021 04/01 A3018 RMK SLP229
Loading
Personal Weather Stations






























Interactive Weather Map
Tropical Storm Tracking
New forecast layout! Learn more

10-Day Weather Forecast

Advertisements
Track Severe Weather on mobile